Time;durP1;ratioP1;P1;durP2;ratioP2;P2;SDS_P1;SDS_P2;PMS_P1;PMS_P2;Temp;Humidity;BMP_temperature;BMP_pressure;BME280_temperature;BME280_humidity;BME280_pressure;Samples;Min_cycle;Max_cycle;Signal;HPM_P1;HPM_P2
2023/10/25 00:00:51;;;;;;;6.22;3.35;;;11.20;99.90;;;;;;7610082;19;20022;-72
2023/10/25 00:03:24;;;;;;;3.35;2.67;;;11.20;99.90;;;;;;7606433;19;20019;-72
2023/10/25 00:05:56;;;;;;;4.45;3.17;;;11.10;99.90;;;;;;7609500;19;20018;-72
2023/10/25 00:08:28;;;;;;;8.43;2.80;;;11.10;99.90;;;;;;7611536;19;20019;-72
2023/10/25 00:11:07;;;;;;;4.30;3.90;;;11.10;99.90;;;;;;7609172;19;20035;-72
2023/10/25 00:13:40;;;;;;;7.00;4.57;;;11.00;99.90;;;;;;7605380;19;20011;-71
2023/10/25 00:16:13;;;;;;;4.28;2.30;;;11.00;99.90;;;;;;7610062;19;20074;-72
2023/10/25 00:18:45;;;;;;;4.10;2.43;;;11.10;99.90;;;;;;7606995;19;20022;-71
2023/10/25 00:21:17;;;;;;;5.13;3.00;;;11.00;99.90;;;;;;7607336;19;20019;-71
2023/10/25 00:23:49;;;;;;;4.82;3.00;;;11.00;99.90;;;;;;7608167;19;20670;-71
2023/10/25 00:26:22;;;;;;;5.00;3.15;;;11.00;99.90;;;;;;7605045;19;20023;-72
2023/10/25 00:28:58;;;;;;;8.05;3.10;;;11.00;99.90;;;;;;7605013;19;20029;-71
2023/10/25 00:31:31;;;;;;;5.40;3.35;;;11.00;99.90;;;;;;7608270;19;20030;-72
2023/10/25 00:34:03;;;;;;;5.32;4.07;;;11.00;99.90;;;;;;7608268;19;20038;-72
2023/10/25 00:36:35;;;;;;;6.38;4.18;;;10.90;99.90;;;;;;7607969;19;20023;-72
2023/10/25 00:39:07;;;;;;;6.85;4.50;;;10.90;99.90;;;;;;7605924;19;20114;-72
2023/10/25 00:41:40;;;;;;;8.40;3.88;;;11.00;99.90;;;;;;7608471;19;20018;-72
2023/10/25 00:44:12;;;;;;;5.88;4.35;;;11.00;99.90;;;;;;7607365;19;20081;-72
2023/10/25 00:46:47;;;;;;;12.45;4.25;;;11.00;99.90;;;;;;7606526;19;20911;-72
2023/10/25 00:49:19;;;;;;;5.30;3.83;;;11.00;99.90;;;;;;7604401;19;20061;-72
2023/10/25 00:51:52;;;;;;;6.20;3.90;;;11.00;99.90;;;;;;7605556;19;20504;-72
2023/10/25 00:54:25;;;;;;;5.05;3.97;;;11.00;99.90;;;;;;7605806;19;20026;-72
2023/10/25 00:56:58;;;;;;;7.47;4.55;;;11.00;99.90;;;;;;7604620;19;20015;-72
2023/10/25 00:59:31;;;;;;;7.47;4.40;;;11.00;99.90;;;;;;7604678;19;20064;-72
2023/10/25 01:02:05;;;;;;;8.63;5.50;;;11.00;99.90;;;;;;7603878;19;20122;-72
2023/10/25 01:04:37;;;;;;;10.38;6.43;;;10.90;99.90;;;;;;7605116;19;20015;-72
2023/10/25 01:07:10;;;;;;;9.05;5.57;;;10.90;99.90;;;;;;7601281;19;20054;-72
2023/10/25 01:09:43;;;;;;;7.50;4.97;;;10.90;99.90;;;;;;7603505;19;20035;-71
2023/10/25 01:12:16;;;;;;;10.25;6.53;;;11.00;99.90;;;;;;7603646;19;20134;-72
2023/10/25 01:14:50;;;;;;;9.05;6.35;;;10.90;99.90;;;;;;7605045;19;20018;-72
2023/10/25 01:17:22;;;;;;;12.70;7.55;;;10.90;99.90;;;;;;7607246;19;20018;-72
2023/10/25 01:19:55;;;;;;;9.03;6.47;;;10.90;99.90;;;;;;7603118;19;20460;-72
2023/10/25 01:22:27;;;;;;;9.40;6.70;;;10.90;99.90;;;;;;7604504;19;20022;-71
2023/10/25 01:24:59;;;;;;;9.65;7.00;;;10.90;99.90;;;;;;7606695;19;20054;-72
2023/10/25 01:27:32;;;;;;;12.77;8.47;;;10.80;99.90;;;;;;7605812;19;20101;-72
2023/10/25 01:30:05;;;;;;;14.57;9.13;;;10.80;99.90;;;;;;7602683;19;20018;-72
2023/10/25 01:32:38;;;;;;;;;;;10.70;99.90;;;;;;7604935;19;20014;-72
2023/10/25 01:35:10;;;;;;;10.32;6.65;;;10.70;99.90;;;;;;7603755;19;19993;-72
2023/10/25 01:37:43;;;;;;;12.82;7.60;;;10.70;99.90;;;;;;7604684;19;20019;-71
2023/10/25 01:40:16;;;;;;;10.43;7.40;;;10.60;99.90;;;;;;7605863;19;20022;-73
2023/10/25 01:42:53;;;;;;;12.55;8.60;;;10.60;99.90;;;;;;7603847;19;20014;-72
2023/10/25 01:45:27;;;;;;;10.55;8.18;;;10.60;99.90;;;;;;7587639;19;20014;-72
2023/10/25 01:47:59;;;;;;;9.40;7.55;;;10.50;99.90;;;;;;7601468;19;20038;-72
2023/10/25 01:50:32;;;;;;;14.30;8.70;;;10.60;99.90;;;;;;7604236;19;20022;-72
2023/10/25 01:53:04;;;;;;;24.27;10.85;;;10.60;99.90;;;;;;7603804;19;20025;-71
2023/10/25 01:55:40;;;;;;;11.32;7.78;;;10.50;99.90;;;;;;7604572;19;20018;-72
2023/10/25 01:58:12;;;;;;;11.35;7.78;;;10.50;99.90;;;;;;7600346;19;20945;-71
2023/10/25 02:00:45;;;;;;;12.45;8.43;;;10.50;99.90;;;;;;7600596;19;20662;-72
2023/10/25 02:03:17;;;;;;;19.52;9.52;;;10.50;99.90;;;;;;7605331;19;20019;-72
2023/10/25 02:05:49;;;;;;;17.50;9.02;;;10.50;99.90;;;;;;7601339;19;20038;-72
2023/10/25 02:08:21;;;;;;;11.35;7.40;;;10.50;99.90;;;;;;7605549;19;20019;-72
2023/10/25 02:10:54;;;;;;;11.52;7.75;;;10.50;99.90;;;;;;7599291;19;20034;-72
2023/10/25 02:13:26;;;;;;;15.68;7.70;;;10.50;99.90;;;;;;7593693;19;20014;-72
2023/10/25 02:15:59;;;;;;;8.27;6.30;;;10.50;99.90;;;;;;7602837;19;20078;-71
2023/10/25 02:18:31;;;;;;;7.47;5.68;;;10.40;99.90;;;;;;7600188;19;20030;-72
2023/10/25 02:21:04;;;;;;;7.73;5.27;;;10.40;99.90;;;;;;7603082;19;20015;-71
2023/10/25 02:23:38;;;;;;;8.80;5.63;;;10.50;99.90;;;;;;7601581;19;20025;-71
2023/10/25 02:26:11;;;;;;;9.65;5.28;;;10.40;99.90;;;;;;7600926;19;20025;-72
2023/10/25 02:28:43;;;;;;;6.25;4.82;;;10.40;99.90;;;;;;7601828;19;20027;-73
2023/10/25 02:31:17;;;;;;;10.25;6.22;;;10.50;99.90;;;;;;7602514;19;20011;-72
2023/10/25 02:33:49;;;;;;;7.38;5.47;;;10.40;99.90;;;;;;7603525;19;20018;-72
2023/10/25 02:36:23;;;;;;;7.27;5.97;;;10.40;99.90;;;;;;7594466;19;20026;-72
2023/10/25 02:38:55;;;;;;;6.60;5.28;;;10.40;99.90;;;;;;7589909;19;20785;-72
2023/10/25 02:41:28;;;;;;;13.17;6.70;;;10.40;99.90;;;;;;7598985;19;20101;-72
2023/10/25 02:44:01;;;;;;;8.98;6.15;;;10.30;99.90;;;;;;7598859;19;20014;-72
2023/10/25 02:46:33;;;;;;;7.78;5.90;;;10.30;99.90;;;;;;7586344;19;20108;-72
2023/10/25 02:49:06;;;;;;;10.13;5.60;;;10.30;99.90;;;;;;7584749;19;20055;-71
2023/10/25 02:51:38;;;;;;;10.43;6.25;;;10.30;99.90;;;;;;7595178;19;20026;-72
2023/10/25 02:54:11;;;;;;;11.25;5.65;;;10.30;99.90;;;;;;7578425;19;20019;-72
2023/10/25 02:56:43;;;;;;;8.38;6.10;;;10.30;99.90;;;;;;7583082;19;20025;-73
2023/10/25 02:59:15;;;;;;;6.50;4.40;;;10.30;99.90;;;;;;7588568;19;20049;-71
2023/10/25 03:01:47;;;;;;;6.03;4.45;;;10.30;99.90;;;;;;7598234;19;20014;-72
2023/10/25 03:04:20;;;;;;;7.53;4.72;;;10.30;99.90;;;;;;7596628;19;20021;-72
2023/10/25 03:06:53;;;;;;;8.67;5.00;;;10.20;99.90;;;;;;7597301;19;20093;-72
2023/10/25 03:09:25;;;;;;;8.35;4.95;;;10.20;99.90;;;;;;7595357;19;20018;-72
2023/10/25 03:11:58;;;;;;;9.43;4.78;;;10.20;99.90;;;;;;7594754;19;20490;-71
2023/10/25 03:14:30;;;;;;;6.90;4.80;;;10.10;99.90;;;;;;7599063;19;20024;-72
2023/10/25 03:17:02;;;;;;;8.18;4.80;;;10.10;99.90;;;;;;7598839;19;21478;-72
2023/10/25 03:19:34;;;;;;;7.72;5.28;;;10.10;99.90;;;;;;7591791;19;21533;-72
2023/10/25 03:22:06;;;;;;;5.25;3.97;;;10.20;99.90;;;;;;7599627;19;20011;-72
2023/10/25 03:24:39;;;;;;;6.60;4.20;;;10.10;99.90;;;;;;7592265;19;20174;-73
2023/10/25 03:27:11;;;;;;;5.80;4.13;;;10.20;99.90;;;;;;7600797;19;20022;-72
2023/10/25 03:29:45;;;;;;;6.50;4.27;;;10.10;99.90;;;;;;7591278;19;20017;-72
2023/10/25 03:32:17;;;;;;;5.25;4.00;;;10.10;99.90;;;;;;7588910;19;20908;-72
2023/10/25 03:34:53;;;;;;;5.82;4.22;;;10.10;99.90;;;;;;7573834;19;20015;-73
2023/10/25 03:37:25;;;;;;;6.13;4.25;;;10.10;99.90;;;;;;7590457;19;20082;-73
2023/10/25 03:39:57;;;;;;;5.25;4.13;;;10.10;99.90;;;;;;7590109;19;20025;-72
2023/10/25 03:42:30;;;;;;;6.35;4.18;;;10.00;99.90;;;;;;7595036;19;20014;-72
2023/10/25 03:45:06;;;;;;;7.68;4.70;;;10.00;99.90;;;;;;7594671;19;20368;-72
2023/10/25 03:47:38;;;;;;;6.70;4.60;;;9.90;99.90;;;;;;7594936;19;20007;-72
2023/10/25 03:50:11;;;;;;;6.63;4.40;;;9.80;99.90;;;;;;7570796;19;20038;-72
2023/10/25 03:52:43;;;;;;;10.23;4.20;;;9.70;99.90;;;;;;7578487;19;20018;-73
2023/10/25 03:55:15;;;;;;;6.57;4.28;;;9.70;99.90;;;;;;7580772;19;20034;-72
2023/10/25 03:57:48;;;;;;;4.40;3.70;;;9.60;99.90;;;;;;7580365;19;20044;-72
2023/10/25 04:00:20;;;;;;;6.28;4.10;;;9.70;99.90;;;;;;7588728;19;20013;-73
2023/10/25 04:02:53;;;;;;;5.47;4.05;;;9.60;99.90;;;;;;7581017;19;20804;-72
2023/10/25 04:05:26;;;;;;;3.92;2.83;;;9.60;99.90;;;;;;7579837;19;20030;-72
2023/10/25 04:07:58;;;;;;;7.23;3.80;;;9.60;99.90;;;;;;7581353;19;20037;-71
2023/10/25 04:10:31;;;;;;;5.03;3.40;;;9.60;99.90;;;;;;7587581;19;20266;-71
2023/10/25 04:13:04;;;;;;;4.38;2.90;;;9.70;99.90;;;;;;7585108;19;20014;-72
2023/10/25 04:15:37;;;;;;;4.70;3.40;;;9.60;99.90;;;;;;7579283;19;20051;-72
2023/10/25 04:18:10;;;;;;;3.42;2.88;;;9.70;99.90;;;;;;7586045;19;20037;-72
2023/10/25 04:20:42;;;;;;;6.25;3.65;;;9.60;99.90;;;;;;7576385;19;20064;-72
2023/10/25 04:23:14;;;;;;;4.38;3.47;;;9.60;99.90;;;;;;7586848;19;20096;-72
2023/10/25 04:25:47;;;;;;;6.90;4.20;;;9.60;99.90;;;;;;7573549;19;20011;-72
2023/10/25 04:28:19;;;;;;;7.25;5.22;;;9.60;99.90;;;;;;7596504;19;20011;-72
2023/10/25 04:30:52;;;;;;;7.82;4.47;;;9.60;99.90;;;;;;7583849;19;20050;-71
2023/10/25 04:33:24;;;;;;;9.88;5.07;;;9.50;99.90;;;;;;7583704;19;20014;-71
2023/10/25 04:35:57;;;;;;;6.85;5.07;;;9.50;99.90;;;;;;7593495;19;20011;-72
2023/10/25 04:38:30;;;;;;;11.07;6.75;;;9.60;99.90;;;;;;7590126;19;20010;-73
2023/10/25 04:41:03;;;;;;;7.28;5.03;;;9.60;99.90;;;;;;7587868;19;20019;-73
2023/10/25 04:43:35;;;;;;;10.35;5.72;;;9.50;99.90;;;;;;7581263;19;20597;-73
2023/10/25 04:46:13;;;;;;;8.43;5.00;;;9.50;99.90;;;;;;7583859;19;20055;-72
2023/10/25 04:48:46;;;;;;;6.93;5.53;;;9.50;99.90;;;;;;7582607;19;20010;-73
2023/10/25 04:51:18;;;;;;;7.57;5.85;;;9.50;99.90;;;;;;7598309;19;20014;-73
2023/10/25 04:53:50;;;;;;;7.85;5.95;;;9.40;99.90;;;;;;7593981;19;20096;-74
2023/10/25 04:56:23;;;;;;;8.07;5.13;;;9.40;99.90;;;;;;7597088;19;21132;-74
2023/10/25 04:58:55;;;;;;;7.17;5.20;;;9.40;99.90;;;;;;7586331;19;20672;-71
2023/10/25 05:01:27;;;;;;;9.63;5.50;;;9.40;99.90;;;;;;7592954;19;20014;-71
2023/10/25 05:04:00;;;;;;;6.65;4.63;;;9.40;99.90;;;;;;7586823;19;20015;-71
2023/10/25 05:06:33;;;;;;;11.00;6.20;;;9.40;99.90;;;;;;7603173;19;20086;-72
2023/10/25 05:09:05;;;;;;;10.88;7.05;;;9.30;99.90;;;;;;7596412;19;20011;-73
2023/10/25 05:11:38;;;;;;;9.85;6.45;;;9.40;99.90;;;;;;7594926;19;20014;-72
2023/10/25 05:14:11;;;;;;;9.60;6.03;;;9.30;99.90;;;;;;7570236;19;20021;-73
2023/10/25 05:16:43;;;;;;;12.52;7.82;;;9.30;99.90;;;;;;7585865;19;20027;-72
2023/10/25 05:19:16;;;;;;;9.40;6.20;;;9.30;99.90;;;;;;7570530;19;20014;-72
2023/10/25 05:21:51;;;;;;;9.30;6.18;;;9.30;99.90;;;;;;7574012;19;20022;-73
2023/10/25 05:24:24;;;;;;;10.20;6.40;;;9.40;99.90;;;;;;7593055;19;20010;-71
2023/10/25 05:26:56;;;;;;;9.73;6.80;;;9.30;99.90;;;;;;7593053;19;20366;-72
2023/10/25 05:29:29;;;;;;;8.40;5.65;;;9.30;99.90;;;;;;7594871;19;20523;-75
2023/10/25 05:32:05;;;;;;;10.10;6.05;;;9.30;99.90;;;;;;7585214;19;21097;-73
2023/10/25 05:34:38;;;;;;;10.68;7.15;;;9.20;99.90;;;;;;7563999;19;20077;-75
2023/10/25 05:37:10;;;;;;;12.38;7.18;;;9.20;99.90;;;;;;7574329;19;20499;-74
2023/10/25 05:39:43;;;;;;;12.00;7.03;;;9.10;99.90;;;;;;7594149;19;20022;-75
2023/10/25 05:42:20;;;;;;;11.48;6.07;;;9.10;99.90;;;;;;7602029;19;20610;-75
2023/10/25 05:44:54;;;;;;;16.17;7.90;;;9.10;99.90;;;;;;7603469;19;20014;-73
2023/10/25 05:47:28;;;;;;;12.88;6.95;;;9.10;99.90;;;;;;7611662;19;20036;-73
2023/10/25 05:50:00;;;;;;;8.88;5.28;;;9.10;99.90;;;;;;7605251;19;20043;-72
2023/10/25 05:52:34;;;;;;;9.35;5.88;;;9.00;99.90;;;;;;7609243;19;20055;-73
2023/10/25 05:55:07;;;;;;;8.20;5.70;;;9.00;99.90;;;;;;7607822;19;20019;-73
2023/10/25 05:57:39;;;;;;;11.50;5.67;;;9.00;99.90;;;;;;7608999;19;20639;-74
2023/10/25 06:00:12;;;;;;;8.88;6.05;;;8.90;99.90;;;;;;7605207;19;20279;-73
2023/10/25 06:02:45;;;;;;;15.80;7.05;;;8.90;99.90;;;;;;7612406;19;20420;-74
2023/10/25 06:05:18;;;;;;;13.18;7.72;;;8.90;99.90;;;;;;7591746;19;20019;-74
2023/10/25 06:07:51;;;;;;;9.65;6.50;;;8.80;99.90;;;;;;7604932;19;20014;-72
2023/10/25 06:10:24;;;;;;;10.07;6.43;;;8.80;99.90;;;;;;7606523;19;20026;-72
2023/10/25 06:12:59;;;;;;;10.45;5.97;;;8.80;99.90;;;;;;7615962;19;20549;-74
2023/10/25 06:15:31;;;;;;;15.30;6.88;;;8.80;99.90;;;;;;7612377;19;20022;-74
2023/10/25 06:18:07;;;;;;;15.90;6.28;;;8.80;99.90;;;;;;7613985;19;20022;-72
2023/10/25 06:20:39;;;;;;;12.30;6.40;;;8.80;99.90;;;;;;7612775;19;20014;-72
2023/10/25 06:23:14;;;;;;;9.85;6.20;;;8.80;99.90;;;;;;7612302;19;20022;-74
2023/10/25 06:25:46;;;;;;;14.57;6.63;;;8.80;99.90;;;;;;7615387;19;20572;-73
2023/10/25 06:28:19;;;;;;;15.43;6.97;;;8.70;99.90;;;;;;7609662;19;20025;-72
2023/10/25 06:30:51;;;;;;;13.70;7.57;;;8.80;99.90;;;;;;7613399;19;20018;-72
2023/10/25 06:33:25;;;;;;;9.90;7.18;;;8.70;99.90;;;;;;7613003;19;20019;-72
2023/10/25 06:36:01;;;;;;;10.77;6.70;;;8.70;99.90;;;;;;7608866;19;20022;-73
2023/10/25 06:38:34;;;;;;;11.30;6.97;;;8.70;99.90;;;;;;7612508;19;21784;-72
2023/10/25 06:41:17;;;;;;;15.80;9.70;;;8.70;99.90;;;;;;7608524;19;20014;-72
2023/10/25 06:43:50;;;;;;;13.90;7.93;;;8.80;99.90;;;;;;7612981;19;20007;-71
2023/10/25 06:46:23;;;;;;;;;;;8.80;99.90;;;;;;7609458;19;20275;-73
2023/10/25 06:48:58;;;;;;;16.70;7.60;;;9.00;99.90;;;;;;7610317;19;19994;-72
2023/10/25 06:51:30;;;;;;;11.15;7.57;;;8.90;99.90;;;;;;7614022;19;20026;-72
2023/10/25 06:54:03;;;;;;;12.20;7.82;;;8.90;99.90;;;;;;7613437;19;20018;-72
2023/10/25 06:56:36;;;;;;;12.13;7.90;;;8.90;99.90;;;;;;7614462;19;20957;-72
2023/10/25 06:59:08;;;;;;;13.10;7.90;;;9.00;99.90;;;;;;7609324;19;20493;-73
2023/10/25 07:01:45;;;;;;;13.13;7.60;;;9.00;99.90;;;;;;7613394;19;20394;-73
2023/10/25 07:04:18;;;;;;;12.02;7.80;;;9.00;99.90;;;;;;7609505;19;20018;-72
2023/10/25 07:06:51;;;;;;;16.13;8.32;;;9.10;99.90;;;;;;7613095;19;20018;-72
2023/10/25 07:09:23;;;;;;;11.18;7.88;;;9.30;99.90;;;;;;7610684;19;20026;-72
2023/10/25 07:11:55;;;;;;;11.70;7.90;;;9.40;99.90;;;;;;7612315;19;20026;-72
2023/10/25 07:14:33;;;;;;;9.88;6.50;;;9.40;99.90;;;;;;7611197;19;20028;-72
2023/10/25 07:17:06;;;;;;;9.05;7.05;;;9.50;99.90;;;;;;7612755;19;20057;-73
2023/10/25 07:19:41;;;;;;;11.95;7.72;;;9.60;99.90;;;;;;7596456;19;20975;-72
2023/10/25 07:22:14;;;;;;;11.25;7.50;;;9.70;99.90;;;;;;7604328;19;20018;-72
2023/10/25 07:24:46;;;;;;;9.98;7.25;;;9.70;99.90;;;;;;7604411;19;20010;-73
2023/10/25 07:27:18;;;;;;;12.60;7.05;;;9.80;99.90;;;;;;7610268;19;20013;-74
2023/10/25 07:29:51;;;;;;;13.20;7.57;;;9.90;99.90;;;;;;7610260;19;20702;-72
2023/10/25 07:32:24;;;;;;;10.00;6.75;;;9.90;99.90;;;;;;7608550;19;20627;-72
2023/10/25 07:34:57;;;;;;;11.90;6.55;;;10.10;99.90;;;;;;7605682;19;20007;-73
2023/10/25 07:37:29;;;;;;;14.20;7.20;;;10.20;99.90;;;;;;7610247;19;20022;-72
2023/10/25 07:40:05;;;;;;;13.13;6.85;;;10.20;99.90;;;;;;7606833;19;20019;-72
2023/10/25 07:42:37;;;;;;;10.75;6.20;;;10.30;99.90;;;;;;7611220;19;20014;-73
2023/10/25 07:45:10;;;;;;;8.32;4.88;;;10.30;99.90;;;;;;7611582;19;20086;-72
2023/10/25 07:47:42;;;;;;;6.28;4.63;;;10.40;99.90;;;;;;7616908;19;20015;-73
2023/10/25 07:50:18;;;;;;;8.18;4.35;;;10.50;99.90;;;;;;7612526;19;20015;-75
2023/10/25 07:52:51;;;;;;;7.50;5.00;;;10.50;99.90;;;;;;7613332;19;20056;-73
2023/10/25 07:55:23;;;;;;;6.13;4.57;;;10.60;99.90;;;;;;7608679;19;20032;-73
2023/10/25 07:57:58;;;;;;;5.90;4.47;;;10.60;99.90;;;;;;7608333;19;20019;-72
2023/10/25 08:00:34;;;;;;;7.55;4.18;;;10.70;99.90;;;;;;7609731;19;20063;-75
2023/10/25 08:03:06;;;;;;;7.05;4.00;;;10.80;99.90;;;;;;7609696;19;20633;-75
2023/10/25 08:05:39;;;;;;;7.30;4.82;;;10.80;99.90;;;;;;7602125;19;20023;-72
2023/10/25 08:08:11;;;;;;;4.72;3.60;;;10.80;99.90;;;;;;7608230;19;20018;-74
2023/10/25 08:10:44;;;;;;;5.88;3.53;;;10.90;99.90;;;;;;7609686;19;20024;-75
2023/10/25 08:13:16;;;;;;;5.93;3.50;;;11.00;99.90;;;;;;7608215;19;20018;-74
2023/10/25 08:15:58;;;;;;;2.92;2.58;;;11.10;99.90;;;;;;7610408;19;20022;-74
2023/10/25 08:18:33;;;;;;;5.97;2.90;;;11.20;99.90;;;;;;7608830;19;20022;-74
2023/10/25 08:21:16;;;;;;;8.20;3.00;;;11.20;99.90;;;;;;7607550;19;20028;-74
2023/10/25 08:23:51;;;;;;;2.55;2.15;;;11.20;99.90;;;;;;7610035;19;20045;-75
2023/10/25 08:26:26;;;;;;;4.70;2.72;;;11.40;99.90;;;;;;7607259;19;20054;-75
2023/10/25 08:28:58;;;;;;;4.10;2.80;;;11.50;99.90;;;;;;7603964;19;20018;-74
2023/10/25 08:31:31;;;;;;;2.67;2.20;;;11.50;99.90;;;;;;7611711;19;20018;-75
2023/10/25 08:34:03;;;;;;;3.80;2.60;;;11.70;99.90;;;;;;7604249;19;20014;-74
2023/10/25 08:36:36;;;;;;;3.38;2.65;;;11.70;99.90;;;;;;7609747;19;20022;-74
2023/10/25 08:39:09;;;;;;;2.87;2.20;;;11.70;99.90;;;;;;7605698;19;20022;-74
2023/10/25 08:41:43;;;;;;;2.20;1.83;;;11.70;99.90;;;;;;7608634;19;20042;-74
2023/10/25 08:44:16;;;;;;;1.92;1.50;;;11.80;99.90;;;;;;7607515;19;20018;-75
2023/10/25 08:46:50;;;;;;;3.72;1.83;;;11.80;99.90;;;;;;7607458;19;20014;-75
2023/10/25 08:49:22;;;;;;;2.03;1.45;;;11.80;99.90;;;;;;7604726;19;21041;-75
2023/10/25 08:51:55;;;;;;;3.25;1.50;;;11.80;99.90;;;;;;7610518;19;20022;-73
2023/10/25 08:54:29;;;;;;;3.03;1.60;;;11.90;99.90;;;;;;7608984;19;20048;-72
2023/10/25 08:57:03;;;;;;;2.95;1.05;;;11.90;99.90;;;;;;7605604;19;20106;-74
2023/10/25 08:59:43;;;;;;;1.90;1.25;;;12.00;99.90;;;;;;7606730;19;20098;-75
2023/10/25 09:02:16;;;;;;;1.33;0.80;;;12.10;99.90;;;;;;7608686;19;20022;-74
2023/10/25 09:05:07;;;;;;;2.15;1.20;;;12.20;99.90;;;;;;7604535;19;20052;-74
2023/10/25 09:07:40;;;;;;;0.95;0.75;;;12.20;99.90;;;;;;7611498;19;20057;-75
2023/10/25 09:10:17;;;;;;;0.70;0.70;;;12.30;99.90;;;;;;7607015;19;20022;-71
2023/10/25 09:12:51;;;;;;;1.40;0.50;;;12.30;99.90;;;;;;7608817;19;20054;-74
2023/10/25 09:15:30;;;;;;;0.70;0.50;;;12.40;99.90;;;;;;7608114;19;20633;-74
2023/10/25 09:18:02;;;;;;;1.08;0.63;;;12.50;99.90;;;;;;7606405;19;20029;-74
2023/10/25 09:20:34;;;;;;;0.40;0.35;;;12.60;99.90;;;;;;7602825;19;20050;-75
2023/10/25 09:23:10;;;;;;;0.30;0.30;;;12.70;99.90;;;;;;7606818;19;20074;-75
2023/10/25 09:25:44;;;;;;;0.30;0.30;;;12.80;99.90;;;;;;7607169;19;20015;-74
2023/10/25 09:28:29;;;;;;;0.50;0.50;;;12.90;99.90;;;;;;7606390;19;20022;-74
2023/10/25 09:31:01;;;;;;;;;;;13.00;99.90;;;;;;7610674;19;20026;-72
2023/10/25 09:33:34;;;;;;;0.22;0.22;;;13.30;99.90;;;;;;7611640;19;19918;-73
2023/10/25 09:36:06;;;;;;;1.20;0.30;;;13.40;99.90;;;;;;7608545;19;20022;-74
2023/10/25 09:38:39;;;;;;;0.30;0.30;;;13.50;99.90;;;;;;7607553;19;20063;-74
2023/10/25 09:41:17;;;;;;;0.35;0.30;;;13.40;99.90;;;;;;7604643;19;21282;-74
2023/10/25 09:43:51;;;;;;;0.38;0.38;;;13.30;99.90;;;;;;7611593;19;20018;-75
2023/10/25 09:46:31;;;;;;;0.70;0.60;;;13.40;99.90;;;;;;7609110;19;20018;-75
2023/10/25 09:49:06;;;;;;;1.65;0.40;;;13.50;99.90;;;;;;7609387;19;20052;-74
2023/10/25 09:51:42;;;;;;;0.30;0.30;;;13.50;99.90;;;;;;7617780;19;20052;-74
2023/10/25 09:54:29;;;;;;;0.70;0.60;;;13.60;99.90;;;;;;7611919;19;20022;-74
2023/10/25 09:57:02;;;;;;;1.60;0.57;;;13.60;99.90;;;;;;7614421;19;20971;-74
2023/10/25 09:59:37;;;;;;;1.65;1.02;;;13.70;99.90;;;;;;7611699;19;20018;-73
2023/10/25 10:02:16;;;;;;;1.30;1.00;;;13.80;99.90;;;;;;7611697;19;20028;-74
2023/10/25 10:05:08;;;;;;;1.30;0.80;;;13.80;99.90;;;;;;7614625;19;20501;-75
2023/10/25 10:07:55;;;;;;;5.95;1.20;;;13.90;99.90;;;;;;7617409;19;20022;-74
2023/10/25 10:10:38;;;;;;;2.45;0.82;;;13.90;99.90;;;;;;7616062;19;20015;-74
2023/10/25 10:13:15;;;;;;;1.13;0.93;;;13.90;99.90;;;;;;7612696;19;20018;-75
2023/10/25 10:16:11;;;;;;;1.40;0.90;;;13.80;99.90;;;;;;7617373;19;20521;-74
2023/10/25 10:18:45;;;;;;;4.05;1.00;;;13.90;99.90;;;;;;7614700;19;20022;-74
2023/10/25 10:21:18;;;;;;;2.45;0.90;;;13.90;99.90;;;;;;7609924;19;20011;-75
2023/10/25 10:23:51;;;;;;;1.00;0.85;;;13.90;99.90;;;;;;7616093;19;20046;-74
2023/10/25 10:26:44;;;;;;;1.10;1.00;;;13.90;99.90;;;;;;7608876;19;20014;-75
2023/10/25 10:29:37;;;;;;;0.75;0.73;;;13.90;99.90;;;;;;7607888;19;20022;-75
2023/10/25 10:32:10;;;;;;;0.98;0.88;;;14.20;99.90;;;;;;7610544;19;20018;-74
2023/10/25 10:34:56;;;;;;;3.53;0.80;;;14.30;99.90;;;;;;7614377;19;20037;-74
2023/10/25 10:37:29;;;;;;;0.63;0.50;;;14.40;99.90;;;;;;7610670;19;20098;-74
2023/10/25 10:40:01;;;;;;;0.77;0.57;;;14.50;99.90;;;;;;7612522;19;20026;-74
2023/10/25 10:42:40;;;;;;;1.00;0.80;;;14.60;99.90;;;;;;7610587;19;20006;-74
2023/10/25 10:45:15;;;;;;;1.05;0.70;;;14.70;99.90;;;;;;7606001;19;20025;-75
2023/10/25 10:48:13;;;;;;;1.15;0.90;;;14.70;99.90;;;;;;7613410;19;20018;-76
2023/10/25 10:50:47;;;;;;;0.98;0.88;;;14.90;99.90;;;;;;7612280;19;20022;-73
2023/10/25 10:53:20;;;;;;;2.22;1.00;;;14.90;99.90;;;;;;7616685;19;20022;-74
2023/10/25 10:55:53;;;;;;;1.47;1.00;;;14.90;99.90;;;;;;7613841;19;20042;-73
2023/10/25 10:58:27;;;;;;;3.00;0.90;;;15.00;99.90;;;;;;7608600;19;20051;-73
2023/10/25 11:01:00;;;;;;;1.38;1.02;;;15.20;99.90;;;;;;7613943;19;20847;-73
2023/10/25 11:03:32;;;;;;;1.40;1.10;;;15.30;99.90;;;;;;7609835;19;20420;-74
2023/10/25 11:06:05;;;;;;;0.95;0.90;;;15.40;99.90;;;;;;7611043;19;20018;-74
2023/10/25 11:08:37;;;;;;;1.77;1.58;;;15.50;99.90;;;;;;7610505;19;20015;-75
2023/10/25 11:11:09;;;;;;;1.45;1.25;;;15.70;99.90;;;;;;7612271;19;20030;-73
2023/10/25 11:13:41;;;;;;;1.20;1.10;;;17.00;99.90;;;;;;7612602;19;20701;-74
2023/10/25 11:16:14;;;;;;;1.50;1.40;;;19.80;99.90;;;;;;7613946;19;20010;-73
2023/10/25 11:18:47;;;;;;;3.88;1.67;;;23.00;99.90;;;;;;7604962;19;20014;-73
2023/10/25 11:21:19;;;;;;;2.55;1.42;;;25.60;94.90;;;;;;7603038;19;20056;-76
2023/10/25 11:23:52;;;;;;;1.50;1.30;;;26.60;90.50;;;;;;7609374;19;20052;-74
2023/10/25 11:26:26;;;;;;;1.88;1.30;;;27.10;84.30;;;;;;7606341;19;20011;-74
2023/10/25 11:28:59;;;;;;;1.63;0.80;;;28.50;81.00;;;;;;7605588;19;20026;-75
2023/10/25 11:31:32;;;;;;;1.42;1.10;;;29.40;75.00;;;;;;7570085;19;21289;-75
2023/10/25 11:34:04;;;;;;;;;;;29.50;73.90;;;;;;7583582;19;20587;-73
2023/10/25 11:36:37;;;;;;;0.90;0.90;;;29.60;67.20;;;;;;7583157;19;19921;-74
2023/10/25 11:39:10;;;;;;;1.73;1.35;;;28.80;64.90;;;;;;7592335;19;20570;-75
2023/10/25 11:41:43;;;;;;;1.67;1.27;;;28.10;68.40;;;;;;7589037;19;20050;-73
2023/10/25 11:44:21;;;;;;;0.83;0.83;;;27.60;67.90;;;;;;7584574;19;20120;-74
2023/10/25 11:46:58;;;;;;;1.73;0.98;;;25.90;72.10;;;;;;7590728;19;20018;-75
2023/10/25 11:49:32;;;;;;;1.55;0.82;;;25.10;75.80;;;;;;7584588;19;20060;-73
2023/10/25 11:52:05;;;;;;;1.13;0.80;;;25.60;73.30;;;;;;7587584;19;20014;-74
2023/10/25 11:54:38;;;;;;;3.40;0.82;;;24.30;75.40;;;;;;7582242;19;20329;-74
2023/10/25 11:57:10;;;;;;;1.77;0.80;;;22.40;79.70;;;;;;7577959;19;21054;-75
2023/10/25 11:59:44;;;;;;;0.95;0.75;;;20.90;85.80;;;;;;7597460;19;20018;-75
2023/10/25 12:02:22;;;;;;;1.02;0.90;;;19.70;90.90;;;;;;7596364;19;20019;-74
2023/10/25 12:04:56;;;;;;;1.35;0.93;;;20.70;90.60;;;;;;7570860;19;20022;-75
2023/10/25 12:07:30;;;;;;;1.20;0.82;;;20.10;90.10;;;;;;7565438;19;20023;-74
2023/10/25 12:10:06;;;;;;;0.90;0.60;;;19.50;91.60;;;;;;7567916;19;20963;-73
2023/10/25 12:12:39;;;;;;;1.77;0.80;;;19.00;92.70;;;;;;7551607;19;20090;-74
2023/10/25 12:15:11;;;;;;;3.08;0.70;;;18.50;94.10;;;;;;7593668;19;20050;-76
2023/10/25 12:17:44;;;;;;;2.05;0.80;;;18.20;94.60;;;;;;7597748;19;20018;-76
2023/10/25 12:20:17;;;;;;;3.88;1.05;;;19.80;94.40;;;;;;7597996;19;20025;-75
2023/10/25 12:23:01;;;;;;;2.22;0.90;;;19.50;94.80;;;;;;7591458;19;20021;-76
2023/10/25 12:25:37;;;;;;;1.15;0.77;;;19.00;95.20;;;;;;7592198;19;20078;-76
2023/10/25 12:28:09;;;;;;;2.60;0.60;;;18.60;93.60;;;;;;7598844;19;20345;-74
2023/10/25 12:30:41;;;;;;;2.60;0.77;;;18.30;94.30;;;;;;7605584;19;20031;-75
2023/10/25 12:33:14;;;;;;;1.20;0.98;;;18.10;95.30;;;;;;7580594;19;20484;-75
2023/10/25 12:35:48;;;;;;;0.98;0.82;;;19.00;94.50;;;;;;7571819;19;20103;-73
2023/10/25 12:38:20;;;;;;;;;;;20.30;92.90;;;;;;7559320;19;20011;-73
2023/10/25 12:40:52;;;;;;;2.28;0.60;;;21.10;91.40;;;;;;7554761;19;19918;-75
2023/10/25 12:43:24;;;;;;;0.70;0.60;;;22.30;90.30;;;;;;7562732;19;20029;-73
2023/10/25 12:45:58;;;;;;;1.05;0.75;;;22.80;84.30;;;;;;7552423;19;20021;-74
2023/10/25 12:48:30;;;;;;;0.55;0.50;;;22.10;84.70;;;;;;7554025;19;20051;-74
2023/10/25 12:51:03;;;;;;;2.60;0.70;;;20.70;89.70;;;;;;7548527;19;20213;-74
2023/10/25 12:53:37;;;;;;;1.02;0.60;;;20.00;91.00;;;;;;7568446;19;20018;-74
2023/10/25 12:56:09;;;;;;;0.43;0.43;;;20.70;88.90;;;;;;7572585;19;20021;-74
2023/10/25 12:58:42;;;;;;;0.77;0.50;;;22.50;84.40;;;;;;7574998;19;20026;-75
2023/10/25 13:01:15;;;;;;;0.63;0.50;;;21.30;85.70;;;;;;7574991;19;20671;-72
2023/10/25 13:03:47;;;;;;;0.60;0.60;;;19.90;90.30;;;;;;7549339;19;21238;-75
2023/10/25 13:06:20;;;;;;;1.00;0.80;;;19.10;92.10;;;;;;7558568;19;20369;-72
2023/10/25 13:08:52;;;;;;;0.82;0.80;;;18.70;93.30;;;;;;7534830;19;20019;-72
2023/10/25 13:11:25;;;;;;;1.08;0.90;;;18.50;93.70;;;;;;7567972;19;20121;-73
2023/10/25 13:13:57;;;;;;;0.88;0.70;;;18.60;94.10;;;;;;7551955;19;20048;-72
2023/10/25 13:16:31;;;;;;;0.98;0.70;;;18.30;95.20;;;;;;7551503;19;20029;-72
2023/10/25 13:19:04;;;;;;;1.02;0.80;;;18.10;95.50;;;;;;7555323;19;20384;-72
2023/10/25 13:21:41;;;;;;;2.90;1.00;;;18.00;96.50;;;;;;7527733;19;20094;-73